sensor_id;sensor_type;location;lat;lon;timestamp;pressure;altitude;pressure_sealevel;temperature;humidity
37368;BME280;23240;43.210;27.910;2022-07-24T00:00:51;101049.38;;;22.75;100.00
37368;BME280;23240;43.210;27.910;2022-07-24T00:03:16;101045.41;;;22.78;100.00
37368;BME280;23240;43.210;27.910;2022-07-24T00:05:41;101044.09;;;22.74;100.00
37368;BME280;23240;43.210;27.910;2022-07-24T00:08:06;101042.44;;;22.73;100.00
37368;BME280;23240;43.210;27.910;2022-07-24T00:10:32;101037.81;;;22.73;100.00
37368;BME280;23240;43.210;27.910;2022-07-24T00:12:57;101039.50;;;22.74;100.00
37368;BME280;23240;43.210;27.910;2022-07-24T00:15:23;101039.88;;;22.71;100.00
37368;BME280;23240;43.210;27.910;2022-07-24T00:17:48;101037.97;;;22.72;100.00
37368;BME280;23240;43.210;27.910;2022-07-24T00:20:13;101040.31;;;22.75;100.00
37368;BME280;23240;43.210;27.910;2022-07-24T00:22:39;101039.50;;;22.74;100.00
37368;BME280;23240;43.210;27.910;2022-07-24T00:25:04;101043.44;;;22.72;100.00
37368;BME280;23240;43.210;27.910;2022-07-24T00:27:30;101042.00;;;22.76;100.00
37368;BME280;23240;43.210;27.910;2022-07-24T00:29:55;101036.03;;;22.66;100.00
37368;BME280;23240;43.210;27.910;2022-07-24T00:32:20;101036.00;;;22.59;100.00
37368;BME280;23240;43.210;27.910;2022-07-24T00:34:46;101036.78;;;22.53;100.00
37368;BME280;23240;43.210;27.910;2022-07-24T00:37:12;101032.56;;;22.50;100.00
37368;BME280;23240;43.210;27.910;2022-07-24T00:39:37;101029.38;;;22.47;100.00
37368;BME280;23240;43.210;27.910;2022-07-24T00:42:02;101025.94;;;22.38;100.00
37368;BME280;23240;43.210;27.910;2022-07-24T00:44:28;101020.47;;;22.38;100.00
37368;BME280;23240;43.210;27.910;2022-07-24T00:46:53;101015.00;;;22.38;100.00
37368;BME280;23240;43.210;27.910;2022-07-24T00:49:19;101019.56;;;22.31;100.00
37368;BME280;23240;43.210;27.910;2022-07-24T00:51:45;101018.16;;;22.35;100.00
37368;BME280;23240;43.210;27.910;2022-07-24T00:54:11;101014.69;;;22.26;100.00
37368;BME280;23240;43.210;27.910;2022-07-24T00:56:37;101003.91;;;22.18;100.00
37368;BME280;23240;43.210;27.910;2022-07-24T00:59:03;101007.94;;;22.22;100.00
37368;BME280;23240;43.210;27.910;2022-07-24T01:01:29;100997.50;;;22.26;100.00
37368;BME280;23240;43.210;27.910;2022-07-24T01:03:54;101001.44;;;22.23;100.00
37368;BME280;23240;43.210;27.910;2022-07-24T01:06:20;100997.88;;;22.23;100.00
37368;BME280;23240;43.210;27.910;2022-07-24T01:08:46;100994.50;;;22.21;100.00
37368;BME280;23240;43.210;27.910;2022-07-24T01:11:11;100993.06;;;22.25;100.00
37368;BME280;23240;43.210;27.910;2022-07-24T01:13:37;100990.53;;;22.23;100.00
37368;BME280;23240;43.210;27.910;2022-07-24T01:16:03;100977.72;;;22.24;100.00
37368;BME280;23240;43.210;27.910;2022-07-24T01:18:28;100982.16;;;22.25;100.00
37368;BME280;23240;43.210;27.910;2022-07-24T01:20:54;100987.03;;;22.29;100.00
37368;BME280;23240;43.210;27.910;2022-07-24T01:23:21;100983.72;;;22.34;100.00
37368;BME280;23240;43.210;27.910;2022-07-24T01:25:46;100978.50;;;22.39;100.00
37368;BME280;23240;43.210;27.910;2022-07-24T01:28:11;100991.38;;;22.45;100.00
37368;BME280;23240;43.210;27.910;2022-07-24T01:30:37;100987.34;;;22.41;100.00
37368;BME280;23240;43.210;27.910;2022-07-24T01:33:02;100983.72;;;22.34;100.00
37368;BME280;23240;43.210;27.910;2022-07-24T01:35:27;100984.09;;;22.31;100.00
37368;BME280;23240;43.210;27.910;2022-07-24T01:37:53;100981.69;;;22.21;100.00
37368;BME280;23240;43.210;27.910;2022-07-24T01:40:19;100975.78;;;22.18;100.00
37368;BME280;23240;43.210;27.910;2022-07-24T01:42:45;100976.84;;;22.17;100.00
37368;BME280;23240;43.210;27.910;2022-07-24T01:45:10;100973.00;;;22.11;100.00
37368;BME280;23240;43.210;27.910;2022-07-24T01:47:35;100969.41;;;22.11;100.00
37368;BME280;23240;43.210;27.910;2022-07-24T01:50:01;100967.06;;;22.07;100.00
37368;BME280;23240;43.210;27.910;2022-07-24T01:52:26;100962.66;;;22.06;100.00
37368;BME280;23240;43.210;27.910;2022-07-24T01:54:52;100961.22;;;22.11;100.00
37368;BME280;23240;43.210;27.910;2022-07-24T01:57:18;100957.81;;;22.08;100.00
37368;BME280;23240;43.210;27.910;2022-07-24T01:59:44;100957.09;;;22.15;100.00
37368;BME280;23240;43.210;27.910;2022-07-24T02:02:09;100952.91;;;22.19;100.00
37368;BME280;23240;43.210;27.910;2022-07-24T02:04:34;100954.41;;;22.21;100.00
37368;BME280;23240;43.210;27.910;2022-07-24T02:07:00;100954.81;;;22.18;100.00
37368;BME280;23240;43.210;27.910;2022-07-24T02:09:25;100954.16;;;22.16;100.00
37368;BME280;23240;43.210;27.910;2022-07-24T02:11:50;100949.94;;;22.14;100.00
37368;BME280;23240;43.210;27.910;2022-07-24T02:14:19;100952.03;;;22.12;100.00
37368;BME280;23240;43.210;27.910;2022-07-24T02:16:44;100960.09;;;22.20;100.00
37368;BME280;23240;43.210;27.910;2022-07-24T02:19:10;100949.09;;;22.13;100.00
37368;BME280;23240;43.210;27.910;2022-07-24T02:21:35;100949.22;;;22.05;100.00
37368;BME280;23240;43.210;27.910;2022-07-24T02:24:01;100952.13;;;22.03;100.00
37368;BME280;23240;43.210;27.910;2022-07-24T02:26:26;100950.16;;;21.97;100.00
37368;BME280;23240;43.210;27.910;2022-07-24T02:28:51;100954.06;;;21.88;100.00
37368;BME280;23240;43.210;27.910;2022-07-24T02:31:17;100958.22;;;21.84;100.00
37368;BME280;23240;43.210;27.910;2022-07-24T02:33:42;100951.66;;;21.78;100.00
37368;BME280;23240;43.210;27.910;2022-07-24T02:36:08;100958.53;;;21.74;100.00
37368;BME280;23240;43.210;27.910;2022-07-24T02:38:33;100952.53;;;21.64;100.00
37368;BME280;23240;43.210;27.910;2022-07-24T02:40:58;100941.59;;;21.58;100.00
37368;BME280;23240;43.210;27.910;2022-07-24T02:43:24;100941.69;;;21.49;100.00
37368;BME280;23240;43.210;27.910;2022-07-24T02:45:49;100945.72;;;21.53;100.00
37368;BME280;23240;43.210;27.910;2022-07-24T02:48:14;100955.50;;;21.48;100.00
37368;BME280;23240;43.210;27.910;2022-07-24T02:50:39;100943.38;;;21.50;100.00
37368;BME280;23240;43.210;27.910;2022-07-24T02:53:05;100944.69;;;21.54;100.00
37368;BME280;23240;43.210;27.910;2022-07-24T02:55:31;100950.22;;;21.46;100.00
37368;BME280;23240;43.210;27.910;2022-07-24T02:57:56;100946.28;;;21.49;100.00
37368;BME280;23240;43.210;27.910;2022-07-24T03:00:22;100941.31;;;21.52;100.00
37368;BME280;23240;43.210;27.910;2022-07-24T03:02:48;100941.31;;;21.52;100.00
37368;BME280;23240;43.210;27.910;2022-07-24T03:05:13;100935.09;;;21.59;100.00
37368;BME280;23240;43.210;27.910;2022-07-24T03:07:39;100941.19;;;21.61;100.00
37368;BME280;23240;43.210;27.910;2022-07-24T03:10:05;100935.56;;;21.62;100.00
37368;BME280;23240;43.210;27.910;2022-07-24T03:12:31;100930.94;;;21.63;100.00
37368;BME280;23240;43.210;27.910;2022-07-24T03:14:56;100937.13;;;21.71;100.00
37368;BME280;23240;43.210;27.910;2022-07-24T03:17:21;100940.75;;;21.78;100.00
37368;BME280;23240;43.210;27.910;2022-07-24T03:19:47;100938.28;;;21.84;100.00
37368;BME280;23240;43.210;27.910;2022-07-24T03:22:12;100940.22;;;21.90;100.00
37368;BME280;23240;43.210;27.910;2022-07-24T03:24:38;100930.16;;;21.90;100.00
37368;BME280;23240;43.210;27.910;2022-07-24T03:27:03;100931.28;;;21.96;100.00
37368;BME280;23240;43.210;27.910;2022-07-24T03:29:28;100935.28;;;22.00;100.00
37368;BME280;23240;43.210;27.910;2022-07-24T03:31:54;100930.97;;;22.05;100.00
37368;BME280;23240;43.210;27.910;2022-07-24T03:34:19;100930.19;;;22.12;100.00
37368;BME280;23240;43.210;27.910;2022-07-24T03:36:44;100928.94;;;22.14;100.00
37368;BME280;23240;43.210;27.910;2022-07-24T03:39:10;100936.38;;;22.20;100.00
37368;BME280;23240;43.210;27.910;2022-07-24T03:41:35;100931.16;;;22.25;100.00
37368;BME280;23240;43.210;27.910;2022-07-24T03:44:00;100939.59;;;22.30;100.00
37368;BME280;23240;43.210;27.910;2022-07-24T03:46:26;100938.81;;;22.37;100.00
37368;BME280;23240;43.210;27.910;2022-07-24T03:48:53;100936.31;;;22.42;100.00
37368;BME280;23240;43.210;27.910;2022-07-24T03:51:19;100934.44;;;22.42;100.00
37368;BME280;23240;43.210;27.910;2022-07-24T03:53:44;100942.88;;;22.47;100.00
37368;BME280;23240;43.210;27.910;2022-07-24T03:56:09;100940.81;;;22.49;100.00
37368;BME280;23240;43.210;27.910;2022-07-24T03:58:35;100945.25;;;22.57;100.00
37368;BME280;23240;43.210;27.910;2022-07-24T04:01:00;100940.69;;;22.64;100.00
37368;BME280;23240;43.210;27.910;2022-07-24T04:03:26;100942.41;;;22.72;100.00
37368;BME280;23240;43.210;27.910;2022-07-24T04:05:51;100938.47;;;22.81;100.00
37368;BME280;23240;43.210;27.910;2022-07-24T04:08:16;100950.06;;;22.83;100.00
37368;BME280;23240;43.210;27.910;2022-07-24T04:10:42;100942.09;;;22.88;100.00
37368;BME280;23240;43.210;27.910;2022-07-24T04:13:07;100940.28;;;22.95;100.00
37368;BME280;23240;43.210;27.910;2022-07-24T04:15:32;100936.34;;;23.04;100.00
37368;BME280;23240;43.210;27.910;2022-07-24T04:17:58;100941.22;;;23.16;100.00
37368;BME280;23240;43.210;27.910;2022-07-24T04:20:23;100939.81;;;23.26;100.00
37368;BME280;23240;43.210;27.910;2022-07-24T04:22:48;100944.25;;;23.34;100.00
37368;BME280;23240;43.210;27.910;2022-07-24T04:25:14;100944.47;;;23.39;100.00
37368;BME280;23240;43.210;27.910;2022-07-24T04:27:39;100938.22;;;23.45;100.00
37368;BME280;23240;43.210;27.910;2022-07-24T04:30:05;100940.78;;;23.60;100.00
37368;BME280;23240;43.210;27.910;2022-07-24T04:32:30;100937.91;;;23.75;100.00
37368;BME280;23240;43.210;27.910;2022-07-24T04:34:56;100938.13;;;23.87;100.00
37368;BME280;23240;43.210;27.910;2022-07-24T04:37:21;100937.94;;;24.01;100.00
37368;BME280;23240;43.210;27.910;2022-07-24T04:39:46;100945.50;;;24.13;100.00
37368;BME280;23240;43.210;27.910;2022-07-24T04:42:12;100940.50;;;24.23;100.00
37368;BME280;23240;43.210;27.910;2022-07-24T04:44:37;100939.66;;;24.29;100.00
37368;BME280;23240;43.210;27.910;2022-07-24T04:47:02;100939.63;;;24.35;100.00
37368;BME280;23240;43.210;27.910;2022-07-24T04:49:28;100940.31;;;24.44;100.00
37368;BME280;23240;43.210;27.910;2022-07-24T04:51:53;100938.19;;;24.53;100.00
37368;BME280;23240;43.210;27.910;2022-07-24T04:54:18;100944.31;;;24.61;100.00
37368;BME280;23240;43.210;27.910;2022-07-24T04:56:44;100944.72;;;24.72;100.00
37368;BME280;23240;43.210;27.910;2022-07-24T04:59:09;100953.53;;;24.80;100.00
37368;BME280;23240;43.210;27.910;2022-07-24T05:01:34;100941.72;;;24.86;100.00
37368;BME280;23240;43.210;27.910;2022-07-24T05:04:00;100949.69;;;24.95;100.00
37368;BME280;23240;43.210;27.910;2022-07-24T05:06:25;100952.66;;;25.00;100.00
37368;BME280;23240;43.210;27.910;2022-07-24T05:08:51;100953.91;;;25.10;100.00
37368;BME280;23240;43.210;27.910;2022-07-24T05:11:16;100951.16;;;25.17;100.00
37368;BME280;23240;43.210;27.910;2022-07-24T05:13:41;100958.25;;;25.31;100.00
37368;BME280;23240;43.210;27.910;2022-07-24T05:16:07;100951.28;;;25.35;100.00
37368;BME280;23240;43.210;27.910;2022-07-24T05:18:32;100950.44;;;25.35;100.00
37368;BME280;23240;43.210;27.910;2022-07-24T05:20:57;100954.03;;;25.35;100.00
37368;BME280;23240;43.210;27.910;2022-07-24T05:23:22;100953.38;;;25.40;100.00
37368;BME280;23240;43.210;27.910;2022-07-24T05:25:48;100951.63;;;25.52;100.00
37368;BME280;23240;43.210;27.910;2022-07-24T05:28:13;100951.81;;;25.57;100.00
37368;BME280;23240;43.210;27.910;2022-07-24T05:30:39;100949.22;;;25.69;100.00
37368;BME280;23240;43.210;27.910;2022-07-24T05:33:04;100951.94;;;25.82;100.00
37368;BME280;23240;43.210;27.910;2022-07-24T05:35:29;100949.38;;;25.87;100.00
37368;BME280;23240;43.210;27.910;2022-07-24T05:37:55;100954.53;;;26.02;100.00
37368;BME280;23240;43.210;27.910;2022-07-24T05:40:20;100951.66;;;26.22;100.00
37368;BME280;23240;43.210;27.910;2022-07-24T05:42:45;100954.22;;;26.42;100.00
37368;BME280;23240;43.210;27.910;2022-07-24T05:45:11;100958.28;;;26.83;100.00
37368;BME280;23240;43.210;27.910;2022-07-24T05:47:40;100949.06;;;27.51;100.00
37368;BME280;23240;43.210;27.910;2022-07-24T05:50:07;100956.06;;;27.83;99.30
37368;BME280;23240;43.210;27.910;2022-07-24T05:52:32;100956.16;;;28.18;96.16
37368;BME280;23240;43.210;27.910;2022-07-24T05:54:58;100943.53;;;28.64;95.47
37368;BME280;23240;43.210;27.910;2022-07-24T05:57:23;100948.16;;;29.23;92.59
37368;BME280;23240;43.210;27.910;2022-07-24T05:59:48;100948.56;;;29.83;87.25
37368;BME280;23240;43.210;27.910;2022-07-24T06:02:14;100941.69;;;30.31;82.47
37368;BME280;23240;43.210;27.910;2022-07-24T06:04:39;100952.91;;;30.58;78.68
37368;BME280;23240;43.210;27.910;2022-07-24T06:07:08;100944.19;;;30.50;79.53
37368;BME280;23240;43.210;27.910;2022-07-24T06:09:34;100944.88;;;30.74;73.85
37368;BME280;23240;43.210;27.910;2022-07-24T06:12:00;100946.03;;;31.16;70.22
37368;BME280;23240;43.210;27.910;2022-07-24T06:14:25;100947.00;;;31.49;65.70
37368;BME280;23240;43.210;27.910;2022-07-24T06:16:50;100933.72;;;31.51;63.72
37368;BME280;23240;43.210;27.910;2022-07-24T06:19:16;100933.13;;;31.44;63.06
37368;BME280;23240;43.210;27.910;2022-07-24T06:21:41;100933.63;;;31.41;61.21
37368;BME280;23240;43.210;27.910;2022-07-24T06:24:06;100929.97;;;31.35;61.45
37368;BME280;23240;43.210;27.910;2022-07-24T06:26:32;100929.75;;;31.42;58.71
37368;BME280;23240;43.210;27.910;2022-07-24T06:28:57;100931.63;;;31.58;57.68
37368;BME280;23240;43.210;27.910;2022-07-24T06:31:22;100933.28;;;31.59;60.40
37368;BME280;23240;43.210;27.910;2022-07-24T06:33:47;100935.03;;;31.92;63.18
37368;BME280;23240;43.210;27.910;2022-07-24T06:36:13;100937.19;;;32.17;62.53
37368;BME280;23240;43.210;27.910;2022-07-24T06:38:38;100932.19;;;32.14;59.92
37368;BME280;23240;43.210;27.910;2022-07-24T06:41:03;100935.06;;;32.30;60.68
37368;BME280;23240;43.210;27.910;2022-07-24T06:43:29;100935.72;;;32.74;59.22
37368;BME280;23240;43.210;27.910;2022-07-24T06:45:54;100927.81;;;32.93;60.02
37368;BME280;23240;43.210;27.910;2022-07-24T06:48:19;100933.13;;;32.62;62.21
37368;BME280;23240;43.210;27.910;2022-07-24T06:50:45;100920.13;;;32.31;64.55
37368;BME280;23240;43.210;27.910;2022-07-24T06:53:10;100926.31;;;32.38;64.02
37368;BME280;23240;43.210;27.910;2022-07-24T06:55:35;100926.50;;;32.31;63.52
37368;BME280;23240;43.210;27.910;2022-07-24T06:58:01;100921.03;;;32.36;63.04
37368;BME280;23240;43.210;27.910;2022-07-24T07:00:26;100924.63;;;32.37;61.49
37368;BME280;23240;43.210;27.910;2022-07-24T07:02:51;100925.13;;;32.34;60.05
37368;BME280;23240;43.210;27.910;2022-07-24T07:05:17;100922.50;;;32.49;58.79
37368;BME280;23240;43.210;27.910;2022-07-24T07:07:43;100914.28;;;32.27;59.24
37368;BME280;23240;43.210;27.910;2022-07-24T07:10:08;100919.50;;;32.23;57.95
37368;BME280;23240;43.210;27.910;2022-07-24T07:12:34;100921.94;;;32.47;57.61
37368;BME280;23240;43.210;27.910;2022-07-24T07:14:59;100914.69;;;32.41;58.26
37368;BME280;23240;43.210;27.910;2022-07-24T07:17:25;100914.00;;;32.29;58.27
37368;BME280;23240;43.210;27.910;2022-07-24T07:19:50;100914.13;;;32.07;58.98
37368;BME280;23240;43.210;27.910;2022-07-24T07:22:15;100914.84;;;31.97;59.66
37368;BME280;23240;43.210;27.910;2022-07-24T07:24:40;100912.50;;;31.84;59.76
37368;BME280;23240;43.210;27.910;2022-07-24T07:27:06;100910.72;;;31.99;58.57
37368;BME280;23240;43.210;27.910;2022-07-24T07:29:31;100901.91;;;31.81;56.66
37368;BME280;23240;43.210;27.910;2022-07-24T07:31:57;100907.22;;;31.55;57.77
37368;BME280;23240;43.210;27.910;2022-07-24T07:34:22;100910.97;;;31.44;60.09
37368;BME280;23240;43.210;27.910;2022-07-24T07:36:48;100904.28;;;31.40;61.39
37368;BME280;23240;43.210;27.910;2022-07-24T07:39:13;100919.22;;;31.39;62.89
37368;BME280;23240;43.210;27.910;2022-07-24T07:41:38;100909.09;;;31.50;58.74
37368;BME280;23240;43.210;27.910;2022-07-24T07:44:04;100912.75;;;31.55;62.29
37368;BME280;23240;43.210;27.910;2022-07-24T07:46:29;100899.38;;;32.01;59.48
37368;BME280;23240;43.210;27.910;2022-07-24T07:48:54;100908.03;;;32.42;57.41
37368;BME280;23240;43.210;27.910;2022-07-24T07:51:20;100904.75;;;32.45;57.59
37368;BME280;23240;43.210;27.910;2022-07-24T07:53:45;100905.78;;;32.39;58.34
37368;BME280;23240;43.210;27.910;2022-07-24T07:56:11;100898.59;;;32.38;57.39
37368;BME280;23240;43.210;27.910;2022-07-24T07:58:36;100891.19;;;32.16;57.86
37368;BME280;23240;43.210;27.910;2022-07-24T08:01:02;100894.56;;;32.23;56.63
37368;BME280;23240;43.210;27.910;2022-07-24T08:03:27;100892.22;;;32.10;57.34
37368;BME280;23240;43.210;27.910;2022-07-24T08:05:52;100885.81;;;32.05;54.36
37368;BME280;23240;43.210;27.910;2022-07-24T08:08:18;100885.09;;;32.19;53.49
37368;BME280;23240;43.210;27.910;2022-07-24T08:10:43;100890.09;;;32.17;54.46
37368;BME280;23240;43.210;27.910;2022-07-24T08:13:08;100891.81;;;32.61;51.95
37368;BME280;23240;43.210;27.910;2022-07-24T08:15:34;100892.13;;;33.22;48.56
37368;BME280;23240;43.210;27.910;2022-07-24T08:17:59;100891.28;;;33.26;48.33
37368;BME280;23240;43.210;27.910;2022-07-24T08:20:25;100897.97;;;33.31;48.46
37368;BME280;23240;43.210;27.910;2022-07-24T08:22:51;100884.19;;;33.51;49.42
37368;BME280;23240;43.210;27.910;2022-07-24T08:25:17;100888.47;;;33.11;52.66
37368;BME280;23240;43.210;27.910;2022-07-24T08:27:42;100887.56;;;32.95;49.21
37368;BME280;23240;43.210;27.910;2022-07-24T08:30:08;100886.38;;;32.86;51.05
37368;BME280;23240;43.210;27.910;2022-07-24T08:32:33;100894.09;;;32.69;50.01
37368;BME280;23240;43.210;27.910;2022-07-24T08:34:59;100889.97;;;32.82;47.99
37368;BME280;23240;43.210;27.910;2022-07-24T08:37:24;100885.22;;;32.77;52.58
37368;BME280;23240;43.210;27.910;2022-07-24T08:39:49;100897.41;;;32.71;52.45
37368;BME280;23240;43.210;27.910;2022-07-24T08:42:15;100902.09;;;32.65;54.10
37368;BME280;23240;43.210;27.910;2022-07-24T08:44:40;100895.47;;;32.71;49.93
37368;BME280;23240;43.210;27.910;2022-07-24T08:47:06;100904.06;;;32.33;55.03
37368;BME280;23240;43.210;27.910;2022-07-24T08:49:33;100903.41;;;31.88;59.92
37368;BME280;23240;43.210;27.910;2022-07-24T08:52:00;100892.81;;;31.31;65.12
37368;BME280;23240;43.210;27.910;2022-07-24T08:54:27;100896.13;;;30.89;68.49
37368;BME280;23240;43.210;27.910;2022-07-24T08:56:52;100901.16;;;30.70;73.75
37368;BME280;23240;43.210;27.910;2022-07-24T08:59:18;100896.00;;;30.24;77.36
37368;BME280;23240;43.210;27.910;2022-07-24T09:01:44;100899.03;;;30.22;80.32
37368;BME280;23240;43.210;27.910;2022-07-24T09:06:56;100894.34;;;30.78;77.39
37368;BME280;23240;43.210;27.910;2022-07-24T09:09:22;100899.38;;;31.25;75.17
37368;BME280;23240;43.210;27.910;2022-07-24T09:11:47;100895.31;;;31.33;75.69
37368;BME280;23240;43.210;27.910;2022-07-24T09:14:13;100900.16;;;31.20;76.48
37368;BME280;23240;43.210;27.910;2022-07-24T09:17:03;100898.28;;;30.82;79.70
37368;BME280;23240;43.210;27.910;2022-07-24T09:19:29;100892.69;;;30.10;81.36
37368;BME280;23240;43.210;27.910;2022-07-24T09:21:54;100890.16;;;29.75;86.58
37368;BME280;23240;43.210;27.910;2022-07-24T09:24:20;100891.22;;;29.16;91.62
37368;BME280;23240;43.210;27.910;2022-07-24T09:26:53;100892.22;;;28.87;94.83
37368;BME280;23240;43.210;27.910;2022-07-24T09:29:20;100891.28;;;28.69;97.54
37368;BME280;23240;43.210;27.910;2022-07-24T09:31:50;100889.47;;;28.75;89.66
37368;BME280;23240;43.210;27.910;2022-07-24T09:34:18;100897.50;;;28.77;89.07
37368;BME280;23240;43.210;27.910;2022-07-24T09:37:17;100886.13;;;28.73;87.41
37368;BME280;23240;43.210;27.910;2022-07-24T09:39:36;100896.66;;;28.53;90.36
37368;BME280;23240;43.210;27.910;2022-07-24T09:42:02;100885.28;;;28.26;94.99
37368;BME280;23240;43.210;27.910;2022-07-24T09:44:28;100890.16;;;28.24;97.43
37368;BME280;23240;43.210;27.910;2022-07-24T09:46:58;100891.75;;;28.20;100.00
37368;BME280;23240;43.210;27.910;2022-07-24T09:49:24;100892.00;;;28.30;99.70
37368;BME280;23240;43.210;27.910;2022-07-24T09:52:06;100896.66;;;28.29;100.00
37368;BME280;23240;43.210;27.910;2022-07-24T09:54:33;100902.75;;;28.20;100.00
37368;BME280;23240;43.210;27.910;2022-07-24T09:59:39;100884.59;;;28.54;100.00
37368;BME280;23240;43.210;27.910;2022-07-24T10:02:05;100893.09;;;28.64;100.00
37368;BME280;23240;43.210;27.910;2022-07-24T10:04:32;100889.47;;;28.87;100.00
37368;BME280;23240;43.210;27.910;2022-07-24T10:06:59;100877.06;;;29.13;100.00
37368;BME280;23240;43.210;27.910;2022-07-24T10:09:27;100886.19;;;29.13;100.00
37368;BME280;23240;43.210;27.910;2022-07-24T10:11:54;100885.09;;;29.14;100.00
37368;BME280;23240;43.210;27.910;2022-07-24T10:14:22;100888.66;;;29.27;100.00
37368;BME280;23240;43.210;27.910;2022-07-24T10:16:47;100888.78;;;29.32;99.55
37368;BME280;23240;43.210;27.910;2022-07-24T10:19:18;100884.16;;;29.09;100.00
37368;BME280;23240;43.210;27.910;2022-07-24T10:21:53;100887.66;;;29.04;100.00
37368;BME280;23240;43.210;27.910;2022-07-24T10:26:50;100891.03;;;29.06;98.58
37368;BME280;23240;43.210;27.910;2022-07-24T10:29:19;100892.34;;;28.92;99.82
37368;BME280;23240;43.210;27.910;2022-07-24T10:31:54;100886.34;;;28.95;100.00
37368;BME280;23240;43.210;27.910;2022-07-24T10:36:50;100883.59;;;28.72;100.00
37368;BME280;23240;43.210;27.910;2022-07-24T10:39:18;100887.81;;;28.74;100.00
37368;BME280;23240;43.210;27.910;2022-07-24T10:41:58;100883.75;;;28.65;100.00
37368;BME280;23240;43.210;27.910;2022-07-24T10:44:24;100881.47;;;28.50;100.00
37368;BME280;23240;43.210;27.910;2022-07-24T10:46:59;100886.88;;;28.45;100.00
37368;BME280;23240;43.210;27.910;2022-07-24T10:52:08;100878.84;;;28.55;100.00
37368;BME280;23240;43.210;27.910;2022-07-24T10:54:33;100892.34;;;28.57;100.00
37368;BME280;23240;43.210;27.910;2022-07-24T10:56:59;100888.53;;;28.46;100.00
37368;BME280;23240;43.210;27.910;2022-07-24T10:59:42;100883.22;;;28.33;100.00
37368;BME280;23240;43.210;27.910;2022-07-24T11:10:48;100881.94;;;28.47;100.00
37368;BME280;23240;43.210;27.910;2022-07-24T11:13:56;100882.53;;;28.37;100.00
37368;BME280;23240;43.210;27.910;2022-07-24T11:18:37;100880.03;;;28.36;100.00
37368;BME280;23240;43.210;27.910;2022-07-24T11:21:02;100874.00;;;28.15;100.00
37368;BME280;23240;43.210;27.910;2022-07-24T11:23:28;100875.66;;;27.93;100.00
37368;BME280;23240;43.210;27.910;2022-07-24T11:28:37;100868.47;;;27.92;100.00
37368;BME280;23240;43.210;27.910;2022-07-24T11:31:03;100879.16;;;28.00;100.00
37368;BME280;23240;43.210;27.910;2022-07-24T11:33:29;100874.34;;;28.07;100.00
37368;BME280;23240;43.210;27.910;2022-07-24T11:35:54;100874.47;;;28.01;100.00
37368;BME280;23240;43.210;27.910;2022-07-24T11:38:20;100868.97;;;28.12;100.00
37368;BME280;23240;43.210;27.910;2022-07-24T11:40:52;100859.53;;;28.20;100.00
37368;BME280;23240;43.210;27.910;2022-07-24T11:43:28;100869.84;;;28.36;100.00
37368;BME280;23240;43.210;27.910;2022-07-24T11:45:54;100871.19;;;28.34;100.00
37368;BME280;23240;43.210;27.910;2022-07-24T11:48:19;100862.28;;;28.32;100.00
37368;BME280;23240;43.210;27.910;2022-07-24T11:50:45;100857.41;;;28.46;100.00
37368;BME280;23240;43.210;27.910;2022-07-24T11:53:10;100857.72;;;28.26;100.00
37368;BME280;23240;43.210;27.910;2022-07-24T11:55:36;100859.03;;;28.23;100.00
37368;BME280;23240;43.210;27.910;2022-07-24T11:58:02;100853.53;;;28.23;100.00
37368;BME280;23240;43.210;27.910;2022-07-24T12:00:27;100854.84;;;28.21;100.00
37368;BME280;23240;43.210;27.910;2022-07-24T12:02:54;100855.09;;;28.19;100.00
37368;BME280;23240;43.210;27.910;2022-07-24T12:05:54;100856.41;;;28.05;100.00
37368;BME280;23240;43.210;27.910;2022-07-24T12:08:23;100846.81;;;27.96;100.00
37368;BME280;23240;43.210;27.910;2022-07-24T12:10:57;100853.25;;;27.78;100.00
37368;BME280;23240;43.210;27.910;2022-07-24T12:13:23;100845.72;;;27.55;100.00
37368;BME280;23240;43.210;27.910;2022-07-24T12:15:49;100839.88;;;27.51;100.00
37368;BME280;23240;43.210;27.910;2022-07-24T12:18:14;100851.22;;;27.55;100.00
37368;BME280;23240;43.210;27.910;2022-07-24T12:20:40;100858.25;;;27.39;100.00
37368;BME280;23240;43.210;27.910;2022-07-24T12:23:07;100840.28;;;27.36;100.00
37368;BME280;23240;43.210;27.910;2022-07-24T12:25:33;100840.06;;;27.38;100.00
37368;BME280;23240;43.210;27.910;2022-07-24T12:28:05;100839.13;;;27.44;100.00
37368;BME280;23240;43.210;27.910;2022-07-24T12:30:32;100849.53;;;27.42;100.00
37368;BME280;23240;43.210;27.910;2022-07-24T12:33:00;100842.06;;;27.31;100.00
37368;BME280;23240;43.210;27.910;2022-07-24T12:35:26;100851.28;;;27.36;100.00
37368;BME280;23240;43.210;27.910;2022-07-24T12:37:52;100841.47;;;27.29;100.00
37368;BME280;23240;43.210;27.910;2022-07-24T12:42:55;100842.94;;;27.43;100.00
37368;BME280;23240;43.210;27.910;2022-07-24T12:45:20;100837.13;;;27.51;100.00
37368;BME280;23240;43.210;27.910;2022-07-24T12:53:23;100822.75;;;27.49;100.00
37368;BME280;23240;43.210;27.910;2022-07-24T12:56:12;100818.19;;;27.43;100.00
37368;BME280;23240;43.210;27.910;2022-07-24T13:01:13;100815.34;;;27.50;100.00
37368;BME280;23240;43.210;27.910;2022-07-24T13:03:39;100810.66;;;27.50;100.00
37368;BME280;23240;43.210;27.910;2022-07-24T13:06:05;100809.25;;;27.48;100.00